sensor_id;sensor_type;location;lat;lon;timestamp;temperature;humidity
19359;DHT22;9815;52.334;20.890;2023-06-10T00:01:25;18.40;54.40
19359;DHT22;9815;52.334;20.890;2023-06-10T00:03:54;18.40;56.10
19359;DHT22;9815;52.334;20.890;2023-06-10T00:06:24;18.40;56.90
19359;DHT22;9815;52.334;20.890;2023-06-10T00:08:52;18.30;58.10
19359;DHT22;9815;52.334;20.890;2023-06-10T00:11:21;18.20;58.00
19359;DHT22;9815;52.334;20.890;2023-06-10T00:13:49;18.20;55.90
19359;DHT22;9815;52.334;20.890;2023-06-10T00:16:17;18.20;56.20
19359;DHT22;9815;52.334;20.890;2023-06-10T00:18:46;18.10;56.90
19359;DHT22;9815;52.334;20.890;2023-06-10T00:21:15;18.00;58.50
19359;DHT22;9815;52.334;20.890;2023-06-10T00:23:45;18.00;59.30
19359;DHT22;9815;52.334;20.890;2023-06-10T00:26:13;17.90;59.00
19359;DHT22;9815;52.334;20.890;2023-06-10T00:28:44;17.90;58.20
19359;DHT22;9815;52.334;20.890;2023-06-10T00:31:12;18.00;52.60
19359;DHT22;9815;52.334;20.890;2023-06-10T00:33:41;17.90;53.70
19359;DHT22;9815;52.334;20.890;2023-06-10T00:36:09;17.80;54.10
19359;DHT22;9815;52.334;20.890;2023-06-10T00:38:37;17.80;53.70
19359;DHT22;9815;52.334;20.890;2023-06-10T00:41:10;17.70;53.90
19359;DHT22;9815;52.334;20.890;2023-06-10T00:43:38;17.70;54.70
19359;DHT22;9815;52.334;20.890;2023-06-10T00:46:07;17.70;54.20
19359;DHT22;9815;52.334;20.890;2023-06-10T00:48:36;17.60;53.20
19359;DHT22;9815;52.334;20.890;2023-06-10T00:51:05;17.60;50.70
19359;DHT22;9815;52.334;20.890;2023-06-10T00:53:36;17.60;50.40
19359;DHT22;9815;52.334;20.890;2023-06-10T00:56:07;17.60;50.60
19359;DHT22;9815;52.334;20.890;2023-06-10T00:58:37;17.60;52.40
19359;DHT22;9815;52.334;20.890;2023-06-10T01:01:05;17.50;53.10
19359;DHT22;9815;52.334;20.890;2023-06-10T01:03:33;17.50;53.60
19359;DHT22;9815;52.334;20.890;2023-06-10T01:06:12;17.50;52.90
19359;DHT22;9815;52.334;20.890;2023-06-10T01:08:49;17.40;53.30
19359;DHT22;9815;52.334;20.890;2023-06-10T01:11:24;17.40;52.90
19359;DHT22;9815;52.334;20.890;2023-06-10T01:13:55;17.40;51.30
19359;DHT22;9815;52.334;20.890;2023-06-10T01:16:24;17.40;47.70
19359;DHT22;9815;52.334;20.890;2023-06-10T01:18:52;17.50;50.60
19359;DHT22;9815;52.334;20.890;2023-06-10T01:21:23;17.40;50.00
19359;DHT22;9815;52.334;20.890;2023-06-10T01:23:54;17.40;50.30
19359;DHT22;9815;52.334;20.890;2023-06-10T01:26:29;17.30;51.30
19359;DHT22;9815;52.334;20.890;2023-06-10T01:29:00;17.30;51.70
19359;DHT22;9815;52.334;20.890;2023-06-10T01:31:37;17.30;54.50
19359;DHT22;9815;52.334;20.890;2023-06-10T01:34:10;17.20;54.40
19359;DHT22;9815;52.334;20.890;2023-06-10T01:36:40;17.20;54.40
19359;DHT22;9815;52.334;20.890;2023-06-10T01:39:11;17.20;55.40
19359;DHT22;9815;52.334;20.890;2023-06-10T01:41:41;17.10;56.60
19359;DHT22;9815;52.334;20.890;2023-06-10T01:44:09;17.10;56.20
19359;DHT22;9815;52.334;20.890;2023-06-10T01:46:39;17.10;54.20
19359;DHT22;9815;52.334;20.890;2023-06-10T01:49:07;17.20;53.40
19359;DHT22;9815;52.334;20.890;2023-06-10T01:51:35;17.30;54.50
19359;DHT22;9815;52.334;20.890;2023-06-10T01:54:05;17.30;52.90
19359;DHT22;9815;52.334;20.890;2023-06-10T01:56:33;17.30;52.60
19359;DHT22;9815;52.334;20.890;2023-06-10T01:59:01;17.30;55.10
19359;DHT22;9815;52.334;20.890;2023-06-10T02:01:29;17.30;54.50
19359;DHT22;9815;52.334;20.890;2023-06-10T02:03:57;17.10;57.50
19359;DHT22;9815;52.334;20.890;2023-06-10T02:06:26;17.10;61.00
19359;DHT22;9815;52.334;20.890;2023-06-10T02:08:54;17.00;62.60
19359;DHT22;9815;52.334;20.890;2023-06-10T02:11:24;17.00;61.80
19359;DHT22;9815;52.334;20.890;2023-06-10T02:13:53;16.90;63.60
19359;DHT22;9815;52.334;20.890;2023-06-10T02:16:21;16.80;64.90
19359;DHT22;9815;52.334;20.890;2023-06-10T02:18:50;16.80;66.20
19359;DHT22;9815;52.334;20.890;2023-06-10T02:21:18;16.80;68.40
19359;DHT22;9815;52.334;20.890;2023-06-10T02:23:46;16.80;68.80
19359;DHT22;9815;52.334;20.890;2023-06-10T02:26:14;16.70;71.50
19359;DHT22;9815;52.334;20.890;2023-06-10T02:28:44;16.70;73.10
19359;DHT22;9815;52.334;20.890;2023-06-10T02:31:13;16.70;72.80
19359;DHT22;9815;52.334;20.890;2023-06-10T02:33:45;16.60;78.00
19359;DHT22;9815;52.334;20.890;2023-06-10T02:36:13;16.60;80.00
19359;DHT22;9815;52.334;20.890;2023-06-10T02:38:42;16.50;82.50
19359;DHT22;9815;52.334;20.890;2023-06-10T02:41:10;16.40;85.40
19359;DHT22;9815;52.334;20.890;2023-06-10T02:43:40;16.40;87.00
19359;DHT22;9815;52.334;20.890;2023-06-10T02:46:09;16.30;90.40
19359;DHT22;9815;52.334;20.890;2023-06-10T02:48:41;16.30;90.30
19359;DHT22;9815;52.334;20.890;2023-06-10T02:51:12;16.30;90.80
19359;DHT22;9815;52.334;20.890;2023-06-10T02:53:44;16.20;92.70
19359;DHT22;9815;52.334;20.890;2023-06-10T02:56:15;16.20;93.10
19359;DHT22;9815;52.334;20.890;2023-06-10T02:58:44;16.20;93.80
19359;DHT22;9815;52.334;20.890;2023-06-10T03:01:16;16.10;96.20
19359;DHT22;9815;52.334;20.890;2023-06-10T03:03:55;16.10;96.20
19359;DHT22;9815;52.334;20.890;2023-06-10T03:06:24;16.10;96.00
19359;DHT22;9815;52.334;20.890;2023-06-10T03:09:01;16.20;96.30
19359;DHT22;9815;52.334;20.890;2023-06-10T03:11:30;16.20;97.20
19359;DHT22;9815;52.334;20.890;2023-06-10T03:13:58;16.20;97.50
19359;DHT22;9815;52.334;20.890;2023-06-10T03:16:30;16.30;97.90
19359;DHT22;9815;52.334;20.890;2023-06-10T03:19:00;16.40;96.10
19359;DHT22;9815;52.334;20.890;2023-06-10T03:21:28;16.30;96.10
19359;DHT22;9815;52.334;20.890;2023-06-10T03:23:57;16.30;97.40
19359;DHT22;9815;52.334;20.890;2023-06-10T03:26:27;16.40;99.40
19359;DHT22;9815;52.334;20.890;2023-06-10T03:28:56;16.30;99.90
19359;DHT22;9815;52.334;20.890;2023-06-10T03:31:24;16.30;99.90
19359;DHT22;9815;52.334;20.890;2023-06-10T03:33:55;16.30;99.90
19359;DHT22;9815;52.334;20.890;2023-06-10T03:36:25;16.30;99.90
19359;DHT22;9815;52.334;20.890;2023-06-10T03:38:56;16.40;99.90
19359;DHT22;9815;52.334;20.890;2023-06-10T03:41:25;16.40;99.90
19359;DHT22;9815;52.334;20.890;2023-06-10T03:43:54;16.50;99.90
19359;DHT22;9815;52.334;20.890;2023-06-10T03:46:22;16.50;99.90
19359;DHT22;9815;52.334;20.890;2023-06-10T03:48:50;16.50;99.90
19359;DHT22;9815;52.334;20.890;2023-06-10T03:51:20;16.50;99.90
19359;DHT22;9815;52.334;20.890;2023-06-10T03:53:49;16.60;99.90
19359;DHT22;9815;52.334;20.890;2023-06-10T03:56:17;16.60;99.90
19359;DHT22;9815;52.334;20.890;2023-06-10T03:58:46;16.70;99.90
19359;DHT22;9815;52.334;20.890;2023-06-10T04:01:14;16.70;99.90
19359;DHT22;9815;52.334;20.890;2023-06-10T04:03:44;16.80;99.90
19359;DHT22;9815;52.334;20.890;2023-06-10T04:06:17;16.70;99.90
19359;DHT22;9815;52.334;20.890;2023-06-10T04:08:47;16.70;99.90
19359;DHT22;9815;52.334;20.890;2023-06-10T04:11:15;16.80;99.90
19359;DHT22;9815;52.334;20.890;2023-06-10T04:13:45;16.80;99.90
19359;DHT22;9815;52.334;20.890;2023-06-10T04:16:13;17.10;94.70
19359;DHT22;9815;52.334;20.890;2023-06-10T04:18:41;17.30;97.10
19359;DHT22;9815;52.334;20.890;2023-06-10T04:21:10;17.20;97.20
19359;DHT22;9815;52.334;20.890;2023-06-10T04:23:38;17.30;95.80
19359;DHT22;9815;52.334;20.890;2023-06-10T04:26:10;17.40;93.90
19359;DHT22;9815;52.334;20.890;2023-06-10T04:28:39;17.50;94.70
19359;DHT22;9815;52.334;20.890;2023-06-10T04:31:07;17.60;94.20
19359;DHT22;9815;52.334;20.890;2023-06-10T04:33:35;17.80;92.00
19359;DHT22;9815;52.334;20.890;2023-06-10T04:36:04;17.80;83.40
19359;DHT22;9815;52.334;20.890;2023-06-10T04:38:34;18.00;81.90
19359;DHT22;9815;52.334;20.890;2023-06-10T04:41:03;18.10;77.40
19359;DHT22;9815;52.334;20.890;2023-06-10T04:43:35;18.10;78.50
19359;DHT22;9815;52.334;20.890;2023-06-10T04:46:04;18.20;78.00
19359;DHT22;9815;52.334;20.890;2023-06-10T04:48:35;18.20;83.00
19359;DHT22;9815;52.334;20.890;2023-06-10T04:51:04;18.20;74.20
19359;DHT22;9815;52.334;20.890;2023-06-10T04:53:32;18.30;80.90
19359;DHT22;9815;52.334;20.890;2023-06-10T04:56:00;18.40;69.10
19359;DHT22;9815;52.334;20.890;2023-06-10T04:58:28;18.40;73.80
19359;DHT22;9815;52.334;20.890;2023-06-10T05:00:58;18.40;81.70
19359;DHT22;9815;52.334;20.890;2023-06-10T05:03:26;18.50;85.50
19359;DHT22;9815;52.334;20.890;2023-06-10T05:05:54;18.50;81.70
19359;DHT22;9815;52.334;20.890;2023-06-10T05:08:23;18.50;81.00
19359;DHT22;9815;52.334;20.890;2023-06-10T05:10:51;18.50;76.60
19359;DHT22;9815;52.334;20.890;2023-06-10T05:13:19;18.60;76.20
19359;DHT22;9815;52.334;20.890;2023-06-10T05:15:47;18.60;73.20
19359;DHT22;9815;52.334;20.890;2023-06-10T05:18:16;18.80;66.80
19359;DHT22;9815;52.334;20.890;2023-06-10T05:20:44;18.80;64.50
19359;DHT22;9815;52.334;20.890;2023-06-10T05:23:13;18.90;62.60
19359;DHT22;9815;52.334;20.890;2023-06-10T05:25:41;19.00;63.10
19359;DHT22;9815;52.334;20.890;2023-06-10T05:28:09;19.00;62.30
19359;DHT22;9815;52.334;20.890;2023-06-10T05:30:41;19.10;58.70
19359;DHT22;9815;52.334;20.890;2023-06-10T05:33:09;19.30;57.10
19359;DHT22;9815;52.334;20.890;2023-06-10T05:35:39;19.30;60.00
19359;DHT22;9815;52.334;20.890;2023-06-10T05:38:07;19.30;63.40
19359;DHT22;9815;52.334;20.890;2023-06-10T05:40:35;19.30;59.00
19359;DHT22;9815;52.334;20.890;2023-06-10T05:43:03;19.30;62.90
19359;DHT22;9815;52.334;20.890;2023-06-10T05:45:32;19.40;61.80
19359;DHT22;9815;52.334;20.890;2023-06-10T05:48:00;19.50;57.30
19359;DHT22;9815;52.334;20.890;2023-06-10T05:50:28;19.60;56.90
19359;DHT22;9815;52.334;20.890;2023-06-10T05:52:58;19.70;51.10
19359;DHT22;9815;52.334;20.890;2023-06-10T05:55:26;19.70;52.00
19359;DHT22;9815;52.334;20.890;2023-06-10T05:57:58;19.80;48.90
19359;DHT22;9815;52.334;20.890;2023-06-10T06:00:27;19.90;48.30
19359;DHT22;9815;52.334;20.890;2023-06-10T06:02:55;19.90;50.60
19359;DHT22;9815;52.334;20.890;2023-06-10T06:05:24;19.90;50.80
19359;DHT22;9815;52.334;20.890;2023-06-10T06:07:52;20.00;50.70
19359;DHT22;9815;52.334;20.890;2023-06-10T06:10:22;20.10;49.90
19359;DHT22;9815;52.334;20.890;2023-06-10T06:12:50;20.10;52.60
19359;DHT22;9815;52.334;20.890;2023-06-10T06:15:18;20.30;51.20
19359;DHT22;9815;52.334;20.890;2023-06-10T06:17:46;20.50;47.20
19359;DHT22;9815;52.334;20.890;2023-06-10T06:20:14;20.50;48.60
19359;DHT22;9815;52.334;20.890;2023-06-10T06:22:46;20.80;48.10
19359;DHT22;9815;52.334;20.890;2023-06-10T06:25:14;20.90;45.50
19359;DHT22;9815;52.334;20.890;2023-06-10T06:27:44;20.90;39.90
19359;DHT22;9815;52.334;20.890;2023-06-10T06:30:12;21.10;42.90
19359;DHT22;9815;52.334;20.890;2023-06-10T06:32:40;20.90;40.40
19359;DHT22;9815;52.334;20.890;2023-06-10T06:35:08;21.00;46.20
19359;DHT22;9815;52.334;20.890;2023-06-10T06:37:37;20.90;44.80
19359;DHT22;9815;52.334;20.890;2023-06-10T06:40:18;20.70;44.40
19359;DHT22;9815;52.334;20.890;2023-06-10T06:42:48;20.80;38.20
19359;DHT22;9815;52.334;20.890;2023-06-10T06:45:32;20.70;41.30
19359;DHT22;9815;52.334;20.890;2023-06-10T06:48:01;20.80;43.70
19359;DHT22;9815;52.334;20.890;2023-06-10T06:50:29;20.80;51.30
19359;DHT22;9815;52.334;20.890;2023-06-10T06:52:57;20.80;42.20
19359;DHT22;9815;52.334;20.890;2023-06-10T06:55:25;20.90;38.70
19359;DHT22;9815;52.334;20.890;2023-06-10T06:57:55;20.80;40.10
19359;DHT22;9815;52.334;20.890;2023-06-10T07:00:23;20.70;40.30
19359;DHT22;9815;52.334;20.890;2023-06-10T07:02:51;20.50;41.30
19359;DHT22;9815;52.334;20.890;2023-06-10T07:05:19;20.60;41.90
19359;DHT22;9815;52.334;20.890;2023-06-10T07:07:47;20.60;44.10
19359;DHT22;9815;52.334;20.890;2023-06-10T07:10:21;20.60;43.90
19359;DHT22;9815;52.334;20.890;2023-06-10T07:12:50;20.70;48.20
19359;DHT22;9815;52.334;20.890;2023-06-10T07:15:20;20.80;50.00
19359;DHT22;9815;52.334;20.890;2023-06-10T07:17:48;20.90;47.20
19359;DHT22;9815;52.334;20.890;2023-06-10T07:20:16;20.90;45.70
19359;DHT22;9815;52.334;20.890;2023-06-10T07:22:44;21.20;45.40
19359;DHT22;9815;52.334;20.890;2023-06-10T07:25:13;21.20;41.10
19359;DHT22;9815;52.334;20.890;2023-06-10T07:27:42;21.00;39.30
19359;DHT22;9815;52.334;20.890;2023-06-10T07:30:11;20.70;42.40
19359;DHT22;9815;52.334;20.890;2023-06-10T07:32:41;20.60;44.10
19359;DHT22;9815;52.334;20.890;2023-06-10T07:35:10;20.70;44.70
19359;DHT22;9815;52.334;20.890;2023-06-10T07:37:38;21.00;44.40
19359;DHT22;9815;52.334;20.890;2023-06-10T07:40:07;21.40;39.70
19359;DHT22;9815;52.334;20.890;2023-06-10T07:42:36;21.80;38.90
19359;DHT22;9815;52.334;20.890;2023-06-10T07:45:06;22.10;34.80
19359;DHT22;9815;52.334;20.890;2023-06-10T07:47:35;22.50;31.90
19359;DHT22;9815;52.334;20.890;2023-06-10T07:50:05;22.10;30.80
19359;DHT22;9815;52.334;20.890;2023-06-10T07:52:33;21.80;33.10
19359;DHT22;9815;52.334;20.890;2023-06-10T07:55:02;21.80;34.70
19359;DHT22;9815;52.334;20.890;2023-06-10T07:57:31;21.70;32.10
19359;DHT22;9815;52.334;20.890;2023-06-10T08:00:02;21.80;31.30
19359;DHT22;9815;52.334;20.890;2023-06-10T08:02:38;21.60;31.70
19359;DHT22;9815;52.334;20.890;2023-06-10T08:05:08;21.80;32.20
19359;DHT22;9815;52.334;20.890;2023-06-10T08:07:37;22.50;31.70
19359;DHT22;9815;52.334;20.890;2023-06-10T08:10:06;22.90;29.70
19359;DHT22;9815;52.334;20.890;2023-06-10T08:12:35;23.30;27.60
19359;DHT22;9815;52.334;20.890;2023-06-10T08:15:04;23.10;27.20
19359;DHT22;9815;52.334;20.890;2023-06-10T08:17:33;22.90;27.00
19359;DHT22;9815;52.334;20.890;2023-06-10T08:20:01;22.80;28.10
19359;DHT22;9815;52.334;20.890;2023-06-10T08:22:31;22.60;27.60
19359;DHT22;9815;52.334;20.890;2023-06-10T08:25:00;22.50;27.90
19359;DHT22;9815;52.334;20.890;2023-06-10T08:27:29;22.60;28.60
19359;DHT22;9815;52.334;20.890;2023-06-10T08:29:57;22.40;28.30
19359;DHT22;9815;52.334;20.890;2023-06-10T08:32:27;22.30;28.30
19359;DHT22;9815;52.334;20.890;2023-06-10T08:34:55;22.90;30.00
19359;DHT22;9815;52.334;20.890;2023-06-10T08:37:24;23.00;27.10
19359;DHT22;9815;52.334;20.890;2023-06-10T08:39:53;23.60;27.30
19359;DHT22;9815;52.334;20.890;2023-06-10T08:42:28;23.90;26.10
19359;DHT22;9815;52.334;20.890;2023-06-10T08:45:07;24.00;25.40
19359;DHT22;9815;52.334;20.890;2023-06-10T08:47:42;23.70;23.60
19359;DHT22;9815;52.334;20.890;2023-06-10T08:50:11;23.70;23.90
19359;DHT22;9815;52.334;20.890;2023-06-10T08:52:43;24.10;24.60
19359;DHT22;9815;52.334;20.890;2023-06-10T08:55:15;24.60;25.10
19359;DHT22;9815;52.334;20.890;2023-06-10T08:57:46;24.80;23.80
19359;DHT22;9815;52.334;20.890;2023-06-10T09:00:16;24.90;23.60
19359;DHT22;9815;52.334;20.890;2023-06-10T09:02:44;25.30;22.40
19359;DHT22;9815;52.334;20.890;2023-06-10T09:05:13;25.10;21.10
19359;DHT22;9815;52.334;20.890;2023-06-10T09:07:42;25.30;21.80
19359;DHT22;9815;52.334;20.890;2023-06-10T09:10:12;25.50;19.60
19359;DHT22;9815;52.334;20.890;2023-06-10T09:12:41;25.80;19.60
19359;DHT22;9815;52.334;20.890;2023-06-10T09:15:10;25.70;18.10
19359;DHT22;9815;52.334;20.890;2023-06-10T09:17:39;25.60;19.10
19359;DHT22;9815;52.334;20.890;2023-06-10T09:20:08;25.60;19.30
19359;DHT22;9815;52.334;20.890;2023-06-10T09:22:37;26.00;18.70
19359;DHT22;9815;52.334;20.890;2023-06-10T09:25:07;26.20;19.50
19359;DHT22;9815;52.334;20.890;2023-06-10T09:27:46;25.30;18.20
19359;DHT22;9815;52.334;20.890;2023-06-10T09:30:27;25.30;19.30
19359;DHT22;9815;52.334;20.890;2023-06-10T09:32:56;25.50;18.00
19359;DHT22;9815;52.334;20.890;2023-06-10T09:35:27;25.90;17.70
19359;DHT22;9815;52.334;20.890;2023-06-10T09:37:56;26.20;17.00
19359;DHT22;9815;52.334;20.890;2023-06-10T09:40:25;25.80;16.00
19359;DHT22;9815;52.334;20.890;2023-06-10T09:42:55;26.40;16.40
19359;DHT22;9815;52.334;20.890;2023-06-10T09:45:29;26.30;16.60
19359;DHT22;9815;52.334;20.890;2023-06-10T09:47:57;26.60;16.20
19359;DHT22;9815;52.334;20.890;2023-06-10T09:50:26;26.40;16.00
19359;DHT22;9815;52.334;20.890;2023-06-10T09:52:54;26.10;15.50
19359;DHT22;9815;52.334;20.890;2023-06-10T09:55:23;26.20;15.50
19359;DHT22;9815;52.334;20.890;2023-06-10T09:57:54;26.20;16.20
19359;DHT22;9815;52.334;20.890;2023-06-10T10:00:22;26.30;16.70
19359;DHT22;9815;52.334;20.890;2023-06-10T10:02:53;25.60;15.00
19359;DHT22;9815;52.334;20.890;2023-06-10T10:05:22;25.90;15.50
19359;DHT22;9815;52.334;20.890;2023-06-10T10:07:51;25.80;14.90
19359;DHT22;9815;52.334;20.890;2023-06-10T10:10:20;26.10;14.80
19359;DHT22;9815;52.334;20.890;2023-06-10T10:12:54;26.20;13.90
19359;DHT22;9815;52.334;20.890;2023-06-10T10:15:28;27.00;13.80
19359;DHT22;9815;52.334;20.890;2023-06-10T10:18:00;27.30;10.10
19359;DHT22;9815;52.334;20.890;2023-06-10T10:20:33;27.40;11.00
19359;DHT22;9815;52.334;20.890;2023-06-10T10:23:03;27.60;10.70
19359;DHT22;9815;52.334;20.890;2023-06-10T10:25:34;27.00;10.10
19359;DHT22;9815;52.334;20.890;2023-06-10T10:28:08;27.10;10.80
19359;DHT22;9815;52.334;20.890;2023-06-10T10:30:40;27.60;10.40
19359;DHT22;9815;52.334;20.890;2023-06-10T10:33:12;27.70;8.90
19359;DHT22;9815;52.334;20.890;2023-06-10T10:35:41;27.40;7.70
19359;DHT22;9815;52.334;20.890;2023-06-10T10:38:10;27.40;8.70
19359;DHT22;9815;52.334;20.890;2023-06-10T10:40:38;27.30;7.00
19359;DHT22;9815;52.334;20.890;2023-06-10T10:43:08;27.40;7.30
19359;DHT22;9815;52.334;20.890;2023-06-10T10:45:37;27.10;7.20
19359;DHT22;9815;52.334;20.890;2023-06-10T10:48:07;26.90;8.50
19359;DHT22;9815;52.334;20.890;2023-06-10T10:50:39;27.10;9.50
19359;DHT22;9815;52.334;20.890;2023-06-10T10:53:08;27.00;9.40
19359;DHT22;9815;52.334;20.890;2023-06-10T10:55:36;27.20;9.20
19359;DHT22;9815;52.334;20.890;2023-06-10T10:58:05;27.40;9.90
19359;DHT22;9815;52.334;20.890;2023-06-10T11:00:36;27.80;9.50
19359;DHT22;9815;52.334;20.890;2023-06-10T11:03:06;27.30;10.00
19359;DHT22;9815;52.334;20.890;2023-06-10T11:05:39;27.20;10.70
19359;DHT22;9815;52.334;20.890;2023-06-10T11:08:08;28.00;11.40
19359;DHT22;9815;52.334;20.890;2023-06-10T11:10:38;28.40;9.90
19359;DHT22;9815;52.334;20.890;2023-06-10T11:13:08;28.10;10.10
19359;DHT22;9815;52.334;20.890;2023-06-10T11:15:46;28.30;9.80
19359;DHT22;9815;52.334;20.890;2023-06-10T11:18:19;28.50;10.20
19359;DHT22;9815;52.334;20.890;2023-06-10T11:20:56;28.40;9.90
19359;DHT22;9815;52.334;20.890;2023-06-10T11:23:25;28.00;9.50
19359;DHT22;9815;52.334;20.890;2023-06-10T11:26:12;28.20;9.90
19359;DHT22;9815;52.334;20.890;2023-06-10T11:28:41;28.60;11.10
19359;DHT22;9815;52.334;20.890;2023-06-10T11:31:18;28.50;9.00
19359;DHT22;9815;52.334;20.890;2023-06-10T11:33:48;28.60;10.20
19359;DHT22;9815;52.334;20.890;2023-06-10T11:36:17;28.40;9.60
19359;DHT22;9815;52.334;20.890;2023-06-10T11:38:45;28.50;10.40
19359;DHT22;9815;52.334;20.890;2023-06-10T11:41:13;28.70;10.60
19359;DHT22;9815;52.334;20.890;2023-06-10T11:43:43;28.80;10.60
19359;DHT22;9815;52.334;20.890;2023-06-10T11:46:11;29.40;10.40
19359;DHT22;9815;52.334;20.890;2023-06-10T11:48:48;29.70;10.20
19359;DHT22;9815;52.334;20.890;2023-06-10T11:51:17;29.40;9.70
19359;DHT22;9815;52.334;20.890;2023-06-10T11:53:45;29.30;9.30
19359;DHT22;9815;52.334;20.890;2023-06-10T11:56:13;29.30;8.80
19359;DHT22;9815;52.334;20.890;2023-06-10T11:58:52;28.80;9.10
19359;DHT22;9815;52.334;20.890;2023-06-10T12:01:22;29.10;9.80
19359;DHT22;9815;52.334;20.890;2023-06-10T12:04:01;29.50;9.60
19359;DHT22;9815;52.334;20.890;2023-06-10T12:06:40;29.60;9.00
19359;DHT22;9815;52.334;20.890;2023-06-10T12:09:19;29.50;10.10
19359;DHT22;9815;52.334;20.890;2023-06-10T12:11:55;29.60;10.80
19359;DHT22;9815;52.334;20.890;2023-06-10T12:14:53;30.00;11.10
19359;DHT22;9815;52.334;20.890;2023-06-10T12:17:36;29.70;10.90
19359;DHT22;9815;52.334;20.890;2023-06-10T12:20:08;29.60;10.60
19359;DHT22;9815;52.334;20.890;2023-06-10T12:22:39;29.10;9.90
19359;DHT22;9815;52.334;20.890;2023-06-10T12:25:09;28.70;10.90
19359;DHT22;9815;52.334;20.890;2023-06-10T12:27:39;29.30;10.40
19359;DHT22;9815;52.334;20.890;2023-06-10T12:30:08;29.90;9.80
19359;DHT22;9815;52.334;20.890;2023-06-10T12:32:38;30.10;7.80
19359;DHT22;9815;52.334;20.890;2023-06-10T12:35:11;30.10;8.70
19359;DHT22;9815;52.334;20.890;2023-06-10T12:37:41;30.40;8.50
19359;DHT22;9815;52.334;20.890;2023-06-10T12:40:11;30.50;6.60
19359;DHT22;9815;52.334;20.890;2023-06-10T12:42:39;30.30;6.10
19359;DHT22;9815;52.334;20.890;2023-06-10T12:45:09;30.30;5.80
19359;DHT22;9815;52.334;20.890;2023-06-10T12:47:39;30.50;7.20
19359;DHT22;9815;52.334;20.890;2023-06-10T12:50:10;30.30;5.70
19359;DHT22;9815;52.334;20.890;2023-06-10T12:52:39;30.40;5.70
19359;DHT22;9815;52.334;20.890;2023-06-10T12:55:09;30.20;5.40
19359;DHT22;9815;52.334;20.890;2023-06-10T12:57:47;30.10;6.30
19359;DHT22;9815;52.334;20.890;2023-06-10T13:00:17;30.10;5.90
19359;DHT22;9815;52.334;20.890;2023-06-10T13:02:45;30.00;6.50
19359;DHT22;9815;52.334;20.890;2023-06-10T13:05:15;30.30;6.50
19359;DHT22;9815;52.334;20.890;2023-06-10T13:07:44;30.70;5.70
19359;DHT22;9815;52.334;20.890;2023-06-10T13:10:13;30.70;5.80
19359;DHT22;9815;52.334;20.890;2023-06-10T13:12:41;30.30;6.80
19359;DHT22;9815;52.334;20.890;2023-06-10T13:15:14;30.40;8.20
19359;DHT22;9815;52.334;20.890;2023-06-10T13:17:43;29.60;7.30
19359;DHT22;9815;52.334;20.890;2023-06-10T13:20:12;29.70;7.90
19359;DHT22;9815;52.334;20.890;2023-06-10T13:22:42;30.00;8.50
19359;DHT22;9815;52.334;20.890;2023-06-10T13:25:11;30.00;7.60
19359;DHT22;9815;52.334;20.890;2023-06-10T13:27:40;30.10;8.50
19359;DHT22;9815;52.334;20.890;2023-06-10T13:30:10;30.10;9.60
19359;DHT22;9815;52.334;20.890;2023-06-10T13:32:38;29.30;7.90
19359;DHT22;9815;52.334;20.890;2023-06-10T13:35:07;29.10;9.60
19359;DHT22;9815;52.334;20.890;2023-06-10T13:37:37;29.60;10.30
19359;DHT22;9815;52.334;20.890;2023-06-10T13:40:07;30.10;10.20
19359;DHT22;9815;52.334;20.890;2023-06-10T13:42:36;29.50;8.80
19359;DHT22;9815;52.334;20.890;2023-06-10T13:45:06;29.30;10.40
19359;DHT22;9815;52.334;20.890;2023-06-10T13:47:36;28.60;10.00
19359;DHT22;9815;52.334;20.890;2023-06-10T13:50:06;28.50;9.60
19359;DHT22;9815;52.334;20.890;2023-06-10T13:52:34;28.80;10.40
19359;DHT22;9815;52.334;20.890;2023-06-10T13:55:03;29.10;10.30
19359;DHT22;9815;52.334;20.890;2023-06-10T13:57:33;29.10;10.60
19359;DHT22;9815;52.334;20.890;2023-06-10T14:00:01;29.50;10.60
19359;DHT22;9815;52.334;20.890;2023-06-10T14:02:30;28.90;11.00
19359;DHT22;9815;52.334;20.890;2023-06-10T14:04:58;28.10;12.30
19359;DHT22;9815;52.334;20.890;2023-06-10T14:07:26;27.50;12.30
19359;DHT22;9815;52.334;20.890;2023-06-10T14:09:55;27.80;12.60
19359;DHT22;9815;52.334;20.890;2023-06-10T14:12:23;28.10;12.60
19359;DHT22;9815;52.334;20.890;2023-06-10T14:14:53;28.50;13.20
19359;DHT22;9815;52.334;20.890;2023-06-10T14:17:21;28.40;13.70
19359;DHT22;9815;52.334;20.890;2023-06-10T14:19:50;27.90;13.90
19359;DHT22;9815;52.334;20.890;2023-06-10T14:22:18;27.70;14.20
19359;DHT22;9815;52.334;20.890;2023-06-10T14:24:46;27.90;13.80
19359;DHT22;9815;52.334;20.890;2023-06-10T14:27:14;28.20;13.00
19359;DHT22;9815;52.334;20.890;2023-06-10T14:29:43;28.20;13.10
19359;DHT22;9815;52.334;20.890;2023-06-10T14:32:12;28.80;13.50
19359;DHT22;9815;52.334;20.890;2023-06-10T14:34:40;29.00;11.60
19359;DHT22;9815;52.334;20.890;2023-06-10T14:37:11;29.10;11.90
19359;DHT22;9815;52.334;20.890;2023-06-10T14:39:39;29.40;11.90
19359;DHT22;9815;52.334;20.890;2023-06-10T14:42:07;29.30;12.20
19359;DHT22;9815;52.334;20.890;2023-06-10T14:44:35;28.50;12.50
19359;DHT22;9815;52.334;20.890;2023-06-10T14:47:04;28.00;13.20
19359;DHT22;9815;52.334;20.890;2023-06-10T14:49:33;27.40;14.10
19359;DHT22;9815;52.334;20.890;2023-06-10T14:52:01;26.90;14.30
19359;DHT22;9815;52.334;20.890;2023-06-10T14:54:29;26.90;14.80
19359;DHT22;9815;52.334;20.890;2023-06-10T14:56:58;27.20;14.70
19359;DHT22;9815;52.334;20.890;2023-06-10T14:59:26;27.60;13.70
19359;DHT22;9815;52.334;20.890;2023-06-10T15:01:54;27.90;13.80
19359;DHT22;9815;52.334;20.890;2023-06-10T15:04:26;28.30;13.90
19359;DHT22;9815;52.334;20.890;2023-06-10T15:06:55;28.40;12.20
19359;DHT22;9815;52.334;20.890;2023-06-10T15:09:24;28.40;11.10
19359;DHT22;9815;52.334;20.890;2023-06-10T15:11:52;28.60;12.00
19359;DHT22;9815;52.334;20.890;2023-06-10T15:14:20;27.90;12.80
19359;DHT22;9815;52.334;20.890;2023-06-10T15:16:48;27.40;13.60
19359;DHT22;9815;52.334;20.890;2023-06-10T15:19:16;27.00;14.90
19359;DHT22;9815;52.334;20.890;2023-06-10T15:21:44;26.50;15.30
19359;DHT22;9815;52.334;20.890;2023-06-10T15:24:14;26.50;15.70
19359;DHT22;9815;52.334;20.890;2023-06-10T15:26:42;26.90;16.20
19359;DHT22;9815;52.334;20.890;2023-06-10T15:29:10;27.20;14.50
19359;DHT22;9815;52.334;20.890;2023-06-10T15:31:38;26.80;14.20
19359;DHT22;9815;52.334;20.890;2023-06-10T15:34:06;26.30;15.70
19359;DHT22;9815;52.334;20.890;2023-06-10T15:36:35;26.00;16.10
19359;DHT22;9815;52.334;20.890;2023-06-10T15:39:05;25.80;15.60
19359;DHT22;9815;52.334;20.890;2023-06-10T15:41:35;26.10;16.40
19359;DHT22;9815;52.334;20.890;2023-06-10T15:44:03;26.70;16.00
19359;DHT22;9815;52.334;20.890;2023-06-10T15:46:31;27.20;14.90
19359;DHT22;9815;52.334;20.890;2023-06-10T15:49:01;27.60;15.60